Aérodrome :
LOGIN :

S'inscrire | Disclaimer

   EN    FR    IT 

 










Légende :    VFR   VFR Marginal   IFR   IFR Intensif   IFR Très Intensif
Visi : 
Plafond : 
>= 8 km
>= 3000ft
5 à 8 km
1000 à 3000 ft
1500m à 5 km
500 à 1000 ft
800 à 1500m
200 à 500 ft
< 800m
< 200 ft
Symboles :   Orages  Brouillard  Fortes neiges  Fortes précipitations  Vent > 20 kt
SIGMETs :   Divers  Orages  Givrage  Turbulence  Onde Orograph.  Cendres Volcan.






- Altitude de l'aérodrome : 39 ft
- Code IATA : ANR


EBAW - Anvers / Antwerpen Deurne

DERNIER METAR :
  • 192150Z 21010KT 170V240 8000 -RA FEW009 BKN012 07/05 Q1019 NOSIG

METARs EXPIRÉS :
  • 192120Z 20011KT 9999 -RA FEW019 BKN028 07/05 Q1020 TEMPO 4000 -RADZ BKN012
  • 192050Z 21010KT 9999 -RA FEW021 BKN031 07/04 Q1020 TEMPO 4000 -RADZ BKN012
  • 192020Z 21010KT 180V240 9999 -RA SCT017 BKN021 06/04 Q1020 TEMPO 4000 -RADZ BKN012
  • 191950Z 21009KT 9999 -RA SCT021 BKN028 06/04 Q1021 TEMPO 4000 -RADZ BKN012
  • 191920Z 22009KT 9999 -RA SCT018 BKN028 06/04 Q1021 TEMPO 4000 -RADZ BKN012

TAF TAF EBAW
Valide du 19 à 21h jusqu'au 20 à 06h UTC


192000Z 1921/2006 21012KT 8000 -RA BKN014
PROB30
TEMPO 1921/1924 4000 -RADZ BKN009
BECMG 1923/2001 9999 NSW SCT015 BKN030
PROB30
TEMPO 2000/2006 4000 -DZ BKN009



MET'MAP, la Météo Aéronautique d'un coup d'oeil ! - Copyright ORBIFLY Décembre 2007 - Disclaimer

ORBIFLY MET'MAP TEAM :

Programmation & Développement : Alexandra Zaïnal
Sur une idée originale de : Baudouin d'Aumeries
Assistance à la programmation : Marc-Olivier Méhu
Soutien technique & logistique : Manuel Goepfert

Contact : metmap@orbifly.com




SOURCES & CREDITS :

   NOAA